createdAt,value
2023-02-23T00:00:14.883Z,17.45
2023-02-23T00:00:36.662Z,17.46
2023-02-23T00:00:58.285Z,17.42
2023-02-23T00:01:23.033Z,17.46
2023-02-23T00:01:44.872Z,17.43
2023-02-23T00:02:07.228Z,17.44
2023-02-23T00:02:29.156Z,17.43
2023-02-23T00:02:51.874Z,17.49
2023-02-23T00:03:14.322Z,17.51
2023-02-23T00:03:35.994Z,17.51
2023-02-23T00:03:59.900Z,17.50
2023-02-23T00:04:21.709Z,17.52
2023-02-23T00:04:43.310Z,17.53
2023-02-23T00:05:05.597Z,17.52
2023-02-23T00:05:28.071Z,17.54
2023-02-23T00:05:49.721Z,17.56
2023-02-23T00:06:13.554Z,17.56
2023-02-23T00:06:36.390Z,17.56
2023-02-23T00:06:58.335Z,17.55
2023-02-23T00:07:20.188Z,17.56
2023-02-23T00:07:43.749Z,17.57
2023-02-23T00:08:06.928Z,17.55
2023-02-23T00:08:28.555Z,17.56
2023-02-23T00:08:52.244Z,17.51
2023-02-23T00:09:22.838Z,17.53
2023-02-23T00:09:47.170Z,17.54
2023-02-23T00:10:12.045Z,17.53
2023-02-23T00:10:33.704Z,17.54
2023-02-23T00:10:58.615Z,17.54
2023-02-23T00:11:23.141Z,17.54
2023-02-23T00:11:44.765Z,17.55
2023-02-23T00:12:08.241Z,17.52
2023-02-23T00:12:30.100Z,17.55
2023-02-23T00:12:53.108Z,17.56
2023-02-23T00:13:14.878Z,17.56
2023-02-23T00:13:37.601Z,17.56
2023-02-23T00:14:01.122Z,17.56
2023-02-23T00:14:28.158Z,17.57
2023-02-23T00:14:49.809Z,17.57
2023-02-23T00:15:12.037Z,17.41
2023-02-23T00:15:33.712Z,17.57
2023-02-23T00:15:56.379Z,17.56
2023-02-23T00:16:20.935Z,17.54
2023-02-23T00:16:45.419Z,17.59
2023-02-23T00:17:14.423Z,17.58
2023-02-23T00:17:36.848Z,17.57
2023-02-23T00:17:58.762Z,17.55
2023-02-23T00:18:20.987Z,17.59
2023-02-23T00:18:45.978Z,17.60
2023-02-23T00:19:08.348Z,17.57
2023-02-23T00:19:33.138Z,17.56
2023-02-23T00:19:55.214Z,17.55
2023-02-23T00:20:17.285Z,17.55
2023-02-23T00:20:44.720Z,17.54
2023-02-23T00:21:06.387Z,17.55
2023-02-23T00:21:30.011Z,17.49
2023-02-23T00:21:52.889Z,17.52
2023-02-23T00:22:15.682Z,17.48
2023-02-23T00:22:39.954Z,17.40
2023-02-23T00:23:01.620Z,17.51
2023-02-23T00:23:23.221Z,17.50
2023-02-23T00:23:50.188Z,17.52
2023-02-23T00:24:16.596Z,17.51
2023-02-23T00:24:38.736Z,17.50
2023-02-23T00:25:01.039Z,17.51
2023-02-23T00:25:24.566Z,17.49
2023-02-23T00:25:46.238Z,17.50
2023-02-23T00:26:07.992Z,17.48
2023-02-23T00:26:34.934Z,17.49
2023-02-23T00:26:57.695Z,17.50
2023-02-23T00:27:21.150Z,17.49
2023-02-23T00:27:45.882Z,17.48
2023-02-23T00:28:07.569Z,17.49
2023-02-23T00:28:30.290Z,17.47
2023-02-23T00:28:54.759Z,17.43
2023-02-23T00:29:18.987Z,17.43
2023-02-23T00:29:42.116Z,17.44
2023-02-23T00:30:04.178Z,17.44
2023-02-23T00:30:26.996Z,17.43
2023-02-23T00:30:48.683Z,17.44
2023-02-23T00:31:12.052Z,17.42
2023-02-23T00:31:34.409Z,17.43
2023-02-23T00:31:57.139Z,17.42
2023-02-23T00:32:20.087Z,17.29
2023-02-23T00:32:42.046Z,17.44
2023-02-23T00:33:04.300Z,17.44
2023-02-23T00:33:26.950Z,17.40
2023-02-23T00:33:53.953Z,17.45
2023-02-23T00:34:20.873Z,17.44
2023-02-23T00:34:42.466Z,17.44
2023-02-23T00:35:05.344Z,17.45
2023-02-23T00:35:27.879Z,17.47
2023-02-23T00:35:49.519Z,17.49
2023-02-23T00:36:13.432Z,17.51
2023-02-23T00:36:35.533Z,17.41
2023-02-23T00:36:57.188Z,17.49
2023-02-23T00:37:22.871Z,17.49
2023-02-23T00:37:47.452Z,17.49
2023-02-23T00:38:09.086Z,17.48
2023-02-23T00:38:36.077Z,17.46
2023-02-23T00:39:00.701Z,17.49
2023-02-23T00:39:29.160Z,17.48
2023-02-23T00:39:56.427Z,17.48
2023-02-23T00:40:22.395Z,17.50
2023-02-23T00:40:45.646Z,17.51
2023-02-23T00:41:09.141Z,17.36
2023-02-23T00:41:31.785Z,17.47
2023-02-23T00:41:55.240Z,17.46
2023-02-23T00:42:16.877Z,17.42
2023-02-23T00:42:38.508Z,17.45
2023-02-23T00:43:02.110Z,17.44
2023-02-23T00:43:25.129Z,17.44
2023-02-23T00:43:47.566Z,17.42
2023-02-23T00:44:09.432Z,17.43
2023-02-23T00:44:33.740Z,17.45
2023-02-23T00:44:55.701Z,17.39
2023-02-23T00:45:17.554Z,17.43
2023-02-23T00:45:39.231Z,17.43
2023-02-23T00:46:06.656Z,17.38
2023-02-23T00:46:30.067Z,17.36
2023-02-23T00:46:52.561Z,17.40
2023-02-23T00:47:14.474Z,17.44
2023-02-23T00:47:37.476Z,17.42
2023-02-23T00:47:59.139Z,17.44
2023-02-23T00:48:20.878Z,17.44
2023-02-23T00:48:42.553Z,17.44
2023-02-23T00:49:05.964Z,17.41
2023-02-23T00:49:27.861Z,17.40
2023-02-23T00:49:49.838Z,17.41
2023-02-23T00:50:14.835Z,17.42
2023-02-23T00:50:38.973Z,17.39
2023-02-23T00:51:02.831Z,17.41
2023-02-23T00:51:27.039Z,17.41
2023-02-23T00:51:48.992Z,17.41
2023-02-23T00:52:10.978Z,17.40
2023-02-23T00:52:33.641Z,17.40
2023-02-23T00:52:59.581Z,17.40
2023-02-23T00:53:22.461Z,17.28
2023-02-23T00:53:45.387Z,17.38
2023-02-23T00:54:09.005Z,17.39
2023-02-23T00:54:32.014Z,17.38
2023-02-23T00:54:53.613Z,17.41
2023-02-23T00:55:15.619Z,17.41
2023-02-23T00:55:41.858Z,17.40
2023-02-23T00:56:05.326Z,17.41
2023-02-23T00:56:28.053Z,17.39
2023-02-23T00:56:51.756Z,17.42
2023-02-23T00:57:14.303Z,17.42
2023-02-23T00:57:37.412Z,17.41
2023-02-23T00:57:59.024Z,17.38
2023-02-23T00:58:22.105Z,17.39
2023-02-23T00:58:43.980Z,17.34
2023-02-23T00:59:06.817Z,17.35
2023-02-23T00:59:29.595Z,17.33
2023-02-23T00:59:51.284Z,17.28
2023-02-23T01:00:17.527Z,17.34
2023-02-23T01:00:42.577Z,17.35
2023-02-23T01:01:06.474Z,17.34
2023-02-23T01:01:28.790Z,17.32
2023-02-23T01:01:52.392Z,17.36
2023-02-23T01:02:17.281Z,17.23
2023-02-23T01:02:39.037Z,17.37
2023-02-23T01:03:01.827Z,17.36
2023-02-23T01:03:23.476Z,17.32
2023-02-23T01:03:46.751Z,17.40
2023-02-23T01:04:09.074Z,17.41
2023-02-23T01:04:30.727Z,17.40
2023-02-23T01:04:52.313Z,17.41
2023-02-23T01:05:16.512Z,17.41
2023-02-23T01:05:38.180Z,17.41
2023-02-23T01:06:00.756Z,17.43
2023-02-23T01:06:23.127Z,17.41
2023-02-23T01:06:46.276Z,17.41
2023-02-23T01:07:08.019Z,17.42
2023-02-23T01:07:29.589Z,17.42
2023-02-23T01:07:52.434Z,17.42
2023-02-23T01:08:15.359Z,17.41
2023-02-23T01:08:39.084Z,17.35
2023-02-23T01:09:05.216Z,17.37
2023-02-23T01:09:28.944Z,17.38
2023-02-23T01:09:52.081Z,17.40
2023-02-23T01:10:19.215Z,17.38
2023-02-23T01:10:44.268Z,17.39
2023-02-23T01:11:09.523Z,17.40
2023-02-23T01:11:31.118Z,17.40
2023-02-23T01:11:52.982Z,17.39
2023-02-23T01:12:16.842Z,17.36
2023-02-23T01:12:39.832Z,17.34
2023-02-23T01:13:02.409Z,17.40
2023-02-23T01:13:26.780Z,17.40
2023-02-23T01:13:51.449Z,17.42
2023-02-23T01:14:14.172Z,17.39
2023-02-23T01:14:37.871Z,17.40
2023-02-23T01:14:59.504Z,17.39
2023-02-23T01:15:21.691Z,17.41
2023-02-23T01:15:45.389Z,17.42
2023-02-23T01:16:08.384Z,17.40
2023-02-23T01:16:32.040Z,17.38
2023-02-23T01:16:54.110Z,17.40
2023-02-23T01:17:17.871Z,17.43
2023-02-23T01:17:39.519Z,17.41
2023-02-23T01:18:01.122Z,17.42
2023-02-23T01:18:22.730Z,17.41
2023-02-23T01:18:46.541Z,17.24
2023-02-23T01:19:08.238Z,17.40
2023-02-23T01:19:33.996Z,17.38
2023-02-23T01:19:57.660Z,17.38
2023-02-23T01:20:20.448Z,17.25
2023-02-23T01:20:43.062Z,17.38
2023-02-23T01:21:14.076Z,17.38
2023-02-23T01:21:38.753Z,17.35
2023-02-23T01:22:02.216Z,17.30
2023-02-23T01:22:24.981Z,17.34
2023-02-23T01:22:49.328Z,17.33
2023-02-23T01:23:12.694Z,17.32
2023-02-23T01:23:34.339Z,17.34
2023-02-23T01:23:57.627Z,17.28
2023-02-23T01:24:56.755Z,17.23
2023-02-23T01:25:19.885Z,17.31
2023-02-23T01:25:42.874Z,17.31
2023-02-23T01:26:04.781Z,17.33
2023-02-23T01:26:28.890Z,17.32
2023-02-23T01:26:51.725Z,17.32
2023-02-23T01:27:13.594Z,17.31
2023-02-23T01:27:35.486Z,17.27
2023-02-23T01:27:57.180Z,17.30
2023-02-23T01:28:19.848Z,17.30
2023-02-23T01:28:41.464Z,17.31
2023-02-23T01:29:08.644Z,17.30
2023-02-23T01:29:30.403Z,17.30
2023-02-23T01:29:54.807Z,17.33
2023-02-23T01:30:16.730Z,17.36
2023-02-23T01:30:40.411Z,17.40
2023-02-23T01:31:07.964Z,17.42
2023-02-23T01:31:32.634Z,17.37
2023-02-23T01:31:54.368Z,17.37
2023-02-23T01:32:16.080Z,17.37
2023-02-23T01:32:38.366Z,17.32
2023-02-23T01:33:00.870Z,17.33
2023-02-23T01:33:23.508Z,17.31
2023-02-23T01:33:45.973Z,17.24
2023-02-23T01:34:09.777Z,17.31
2023-02-23T01:34:31.474Z,17.28
2023-02-23T01:34:53.080Z,17.28
2023-02-23T01:35:16.671Z,17.30
2023-02-23T01:35:38.347Z,17.29
2023-02-23T01:36:00.899Z,17.29
2023-02-23T01:36:23.043Z,17.29
2023-02-23T01:36:46.084Z,17.27
2023-02-23T01:37:08.738Z,17.28
2023-02-23T01:37:30.678Z,17.29
2023-02-23T01:37:53.665Z,17.30
2023-02-23T01:38:16.257Z,17.30
2023-02-23T01:38:37.894Z,17.32
2023-02-23T01:39:00.012Z,17.34
2023-02-23T01:39:21.920Z,17.37
2023-02-23T01:39:44.474Z,17.38
2023-02-23T01:40:13.496Z,17.36
2023-02-23T01:40:37.072Z,17.36
2023-02-23T01:40:58.790Z,17.35
2023-02-23T01:41:21.508Z,17.32
2023-02-23T01:41:43.652Z,17.30
2023-02-23T01:42:13.693Z,17.30
2023-02-23T01:42:38.583Z,17.19
2023-02-23T01:43:12.896Z,17.29
2023-02-23T01:43:35.039Z,17.20
2023-02-23T01:43:58.065Z,17.29
2023-02-23T01:44:58.363Z,17.28
2023-02-23T01:45:27.048Z,17.28
2023-02-23T01:45:49.641Z,17.28
2023-02-23T01:46:11.514Z,17.27
2023-02-23T01:46:35.468Z,17.26
2023-02-23T01:46:58.282Z,17.24
2023-02-23T01:47:20.317Z,17.26
2023-02-23T01:47:41.979Z,17.26
2023-02-23T01:48:07.856Z,17.26
2023-02-23T01:48:34.160Z,17.28
2023-02-23T01:48:56.563Z,17.27
2023-02-23T01:49:22.035Z,17.27
2023-02-23T01:49:43.690Z,17.26
2023-02-23T01:50:05.665Z,17.26
2023-02-23T01:50:30.503Z,17.25
2023-02-23T01:50:55.833Z,17.25
2023-02-23T01:51:21.131Z,17.22
2023-02-23T01:51:48.388Z,17.26
2023-02-23T01:52:13.294Z,17.23
2023-02-23T01:52:36.973Z,17.28
2023-02-23T01:52:59.402Z,17.26
2023-02-23T01:53:23.264Z,17.27
2023-02-23T01:53:50.975Z,17.20
2023-02-23T01:54:16.188Z,17.26
2023-02-23T01:54:40.731Z,17.26
2023-02-23T01:55:02.511Z,17.25
2023-02-23T01:55:29.244Z,17.30
2023-02-23T01:55:55.759Z,17.27
2023-02-23T01:56:22.728Z,17.30
2023-02-23T01:56:49.165Z,17.31
2023-02-23T01:57:15.674Z,17.29
2023-02-23T01:57:37.380Z,17.29
2023-02-23T01:58:06.688Z,17.28
2023-02-23T01:58:29.105Z,17.30
2023-02-23T01:58:55.668Z,17.30
2023-02-23T01:59:18.185Z,17.28
2023-02-23T01:59:43.259Z,17.27
2023-02-23T02:00:07.749Z,17.28
2023-02-23T02:00:37.579Z,17.29
2023-02-23T02:01:02.516Z,17.28
2023-02-23T02:01:24.280Z,17.29
2023-02-23T02:01:48.107Z,17.28
2023-02-23T02:02:13.200Z,17.28
2023-02-23T02:02:37.557Z,17.29
2023-02-23T02:03:01.352Z,17.27
2023-02-23T02:03:29.168Z,17.27
2023-02-23T02:03:55.158Z,17.27
2023-02-23T02:04:19.403Z,17.25
2023-02-23T02:04:44.314Z,17.25
2023-02-23T02:05:13.807Z,17.26
2023-02-23T02:05:38.874Z,17.25
2023-02-23T02:06:03.071Z,17.24
2023-02-23T02:06:28.738Z,17.25
2023-02-23T02:06:53.796Z,17.26
2023-02-23T02:07:18.450Z,17.25
2023-02-23T02:07:47.602Z,17.28
2023-02-23T02:08:14.437Z,17.29
2023-02-23T02:08:45.109Z,17.29
2023-02-23T02:09:10.348Z,17.29
2023-02-23T02:09:37.813Z,17.29
2023-02-23T02:10:17.639Z,17.29
2023-02-23T02:10:48.436Z,17.27
2023-02-23T02:11:25.804Z,17.30
2023-02-23T02:11:54.120Z,17.31
2023-02-23T02:12:19.065Z,17.28
2023-02-23T02:12:44.115Z,17.28
2023-02-23T02:13:07.763Z,17.19
2023-02-23T02:13:33.322Z,17.30
2023-02-23T02:13:57.521Z,17.30
2023-02-23T02:14:22.263Z,17.26
2023-02-23T02:14:45.549Z,17.28
2023-02-23T02:15:16.836Z,17.29
2023-02-23T02:15:53.763Z,17.28
2023-02-23T02:16:42.380Z,17.28
2023-02-23T02:17:20.823Z,17.26
2023-02-23T02:17:54.100Z,17.25
2023-02-23T02:18:26.575Z,17.26
2023-02-23T02:19:09.693Z,17.24
2023-02-23T02:20:12.339Z,17.25
2023-02-23T02:20:57.287Z,17.28
2023-02-23T02:21:48.963Z,17.28
2023-02-23T02:22:30.105Z,17.31
2023-02-23T02:23:15.595Z,17.32
2023-02-23T02:24:08.437Z,17.32
2023-02-23T02:24:56.570Z,17.34
2023-02-23T02:25:35.542Z,17.35
2023-02-23T02:26:10.370Z,17.33
2023-02-23T02:26:47.228Z,17.32
2023-02-23T02:27:26.534Z,17.34
2023-02-23T02:28:08.644Z,17.30
2023-02-23T02:28:44.721Z,17.29
2023-02-23T02:29:36.400Z,17.32
2023-02-23T02:30:31.987Z,17.31
2023-02-23T02:31:41.186Z,17.27
2023-02-23T02:32:31.807Z,17.27
2023-02-23T02:33:31.973Z,17.18
2023-02-23T02:34:32.576Z,17.27
2023-02-23T02:35:24.452Z,17.23
2023-02-23T02:36:30.384Z,17.19
2023-02-23T02:37:17.127Z,17.18
2023-02-23T02:38:01.615Z,17.17
2023-02-23T02:38:35.019Z,17.17
2023-02-23T02:39:07.966Z,17.17
2023-02-23T02:39:40.038Z,17.20
2023-02-23T02:40:16.838Z,17.19
2023-02-23T02:40:53.231Z,17.19
2023-02-23T02:41:25.333Z,17.19
2023-02-23T02:41:53.551Z,17.18
2023-02-23T02:42:21.513Z,17.19
2023-02-23T02:42:55.066Z,17.16
2023-02-23T02:43:24.971Z,17.19
2023-02-23T02:43:55.800Z,17.17
2023-02-23T02:44:27.669Z,17.20
2023-02-23T02:44:57.080Z,17.22
2023-02-23T02:45:26.278Z,17.23
2023-02-23T02:45:55.077Z,17.11
2023-02-23T02:46:21.473Z,17.25
2023-02-23T02:46:48.977Z,17.26
2023-02-23T02:47:17.184Z,17.26
2023-02-23T02:47:43.116Z,17.26
2023-02-23T02:48:16.589Z,17.25
2023-02-23T02:48:47.006Z,17.26
2023-02-23T02:49:17.453Z,17.27
2023-02-23T02:49:48.729Z,17.27
2023-02-23T02:50:16.896Z,17.31
2023-02-23T02:50:46.380Z,17.32
2023-02-23T02:51:17.995Z,17.31
2023-02-23T02:51:44.751Z,17.30
2023-02-23T02:52:16.162Z,17.30
2023-02-23T02:52:42.344Z,17.33
2023-02-23T02:53:08.332Z,17.32
2023-02-23T02:53:41.744Z,17.35
2023-02-23T02:54:11.072Z,17.30
2023-02-23T02:54:39.156Z,17.30
2023-02-23T02:55:09.274Z,17.27
2023-02-23T02:55:35.075Z,17.31
2023-02-23T02:56:00.311Z,17.30
2023-02-23T02:56:26.375Z,17.29
2023-02-23T02:56:51.989Z,17.28
2023-02-23T02:57:15.051Z,17.29
2023-02-23T02:57:37.345Z,17.28
2023-02-23T02:58:02.129Z,17.23
2023-02-23T02:58:25.580Z,17.26
2023-02-23T02:58:50.084Z,17.22
2023-02-23T02:59:33.942Z,17.25
2023-02-23T03:00:16.663Z,17.27
2023-02-23T03:00:59.611Z,17.28
2023-02-23T03:01:40.274Z,17.18
2023-02-23T03:02:22.962Z,17.20
2023-02-23T03:03:04.007Z,17.17
2023-02-23T03:03:50.514Z,17.12
2023-02-23T03:04:40.446Z,17.11
2023-02-23T03:05:21.105Z,17.12
2023-02-23T03:06:07.340Z,17.09
2023-02-23T03:06:52.488Z,17.11
2023-02-23T03:07:41.723Z,17.10
2023-02-23T03:08:29.745Z,17.11
2023-02-23T03:09:19.765Z,17.11
2023-02-23T03:10:06.758Z,17.07
2023-02-23T03:10:53.855Z,17.05
2023-02-23T03:11:34.841Z,17.06
2023-02-23T03:12:27.432Z,17.04
2023-02-23T03:13:16.396Z,17.07
2023-02-23T03:14:08.631Z,17.08
2023-02-23T03:14:56.849Z,17.07
2023-02-23T03:15:51.071Z,17.07
2023-02-23T03:16:42.713Z,17.05
2023-02-23T03:17:30.859Z,17.05
2023-02-23T03:18:24.421Z,17.04
2023-02-23T03:19:20.270Z,17.03
2023-02-23T03:20:12.426Z,16.92
2023-02-23T03:21:02.369Z,17.04
2023-02-23T03:21:46.205Z,17.07
2023-02-23T03:22:34.802Z,17.08
2023-02-23T03:23:24.508Z,17.12
2023-02-23T03:24:17.273Z,17.08
2023-02-23T03:25:01.290Z,17.10
2023-02-23T03:25:51.684Z,17.08
2023-02-23T03:26:42.779Z,17.07
2023-02-23T03:27:28.350Z,17.05
2023-02-23T03:28:13.003Z,17.04
2023-02-23T03:28:57.792Z,17.03
2023-02-23T03:29:50.886Z,17.02
2023-02-23T03:30:39.081Z,17.03
2023-02-23T03:31:29.813Z,17.02
2023-02-23T03:32:20.827Z,17.03
2023-02-23T03:33:08.202Z,16.87
2023-02-23T03:33:57.768Z,17.01
2023-02-23T03:34:46.457Z,17.01
2023-02-23T03:35:35.047Z,17.02
2023-02-23T03:36:23.711Z,17.04
2023-02-23T03:37:07.948Z,17.02
2023-02-23T03:37:52.690Z,17.02
2023-02-23T03:38:41.254Z,17.03
2023-02-23T03:39:29.266Z,17.04
2023-02-23T03:40:17.880Z,17.03
2023-02-23T03:41:01.255Z,17.00
2023-02-23T03:41:43.190Z,17.08
2023-02-23T03:42:28.880Z,17.07
2023-02-23T03:43:14.545Z,17.09
2023-02-23T03:44:00.553Z,17.09
2023-02-23T03:44:46.131Z,17.07
2023-02-23T03:45:31.104Z,17.06
2023-02-23T03:46:15.609Z,17.06
2023-02-23T03:46:59.204Z,17.04
2023-02-23T03:47:43.806Z,17.04
2023-02-23T03:48:29.990Z,17.04
2023-02-23T03:49:14.645Z,17.02
2023-02-23T03:49:58.046Z,17.04
2023-02-23T03:50:43.500Z,17.08
2023-02-23T03:51:26.777Z,17.06
2023-02-23T03:52:11.831Z,17.04
2023-02-23T03:52:58.282Z,17.06
2023-02-23T03:53:47.581Z,17.03
2023-02-23T03:54:32.853Z,17.03
2023-02-23T03:55:17.752Z,17.02
2023-02-23T03:56:01.702Z,17.00
2023-02-23T03:56:45.672Z,17.04
2023-02-23T03:57:30.859Z,16.99
2023-02-23T03:58:14.250Z,17.02
2023-02-23T03:58:59.131Z,17.02
2023-02-23T03:59:43.216Z,17.02
2023-02-23T04:00:27.687Z,16.96
2023-02-23T04:01:10.019Z,16.98
2023-02-23T04:01:51.255Z,16.97
2023-02-23T04:02:35.165Z,16.99
2023-02-23T04:03:18.203Z,17.00
2023-02-23T04:04:03.193Z,16.99
2023-02-23T04:04:46.142Z,16.99
2023-02-23T04:05:29.678Z,16.99
2023-02-23T04:06:13.098Z,17.01
2023-02-23T04:06:59.073Z,17.00
2023-02-23T04:07:39.915Z,17.01
2023-02-23T04:08:23.008Z,17.02
2023-02-23T04:09:06.695Z,16.99
2023-02-23T04:09:47.080Z,16.97
2023-02-23T04:10:28.667Z,16.91
2023-02-23T04:11:14.826Z,16.94
2023-02-23T04:12:03.646Z,16.83
2023-02-23T04:12:52.051Z,16.94
2023-02-23T04:13:18.240Z,16.94
2023-02-23T04:13:40.598Z,16.94
2023-02-23T04:14:06.304Z,16.95
2023-02-23T04:14:32.940Z,16.95
2023-02-23T04:14:58.906Z,16.96
2023-02-23T04:15:26.440Z,16.96
2023-02-23T04:15:51.433Z,16.98
2023-02-23T04:16:14.158Z,16.97
2023-02-23T04:16:36.055Z,16.97
2023-02-23T04:16:58.350Z,16.98
2023-02-23T04:17:26.875Z,17.00
2023-02-23T04:17:49.553Z,17.01
2023-02-23T04:18:14.455Z,17.01
2023-02-23T04:18:38.436Z,16.93
2023-02-23T04:19:01.917Z,17.02
2023-02-23T04:19:26.795Z,17.03
2023-02-23T04:19:51.924Z,17.07
2023-02-23T04:20:14.533Z,17.06
2023-02-23T04:20:37.163Z,17.04
2023-02-23T04:20:59.556Z,17.07
2023-02-23T04:21:21.434Z,17.04
2023-02-23T04:21:43.119Z,17.02
2023-02-23T04:22:05.974Z,17.03
2023-02-23T04:22:27.625Z,17.00
2023-02-23T04:22:49.224Z,16.98
2023-02-23T04:23:11.003Z,17.03
2023-02-23T04:23:33.022Z,17.06
2023-02-23T04:23:56.986Z,17.05
2023-02-23T04:24:18.639Z,17.06
2023-02-23T04:24:40.401Z,17.10
2023-02-23T04:25:02.059Z,17.07
2023-02-23T04:25:23.769Z,17.07
2023-02-23T04:25:45.463Z,16.94
2023-02-23T04:26:08.064Z,17.03
2023-02-23T04:26:29.651Z,17.06
2023-02-23T04:26:51.453Z,17.05
2023-02-23T04:27:13.326Z,17.08
2023-02-23T04:27:35.279Z,17.08
2023-02-23T04:27:58.111Z,17.09
2023-02-23T04:28:20.113Z,17.10
2023-02-23T04:28:41.876Z,17.09
2023-02-23T04:29:03.885Z,17.10
2023-02-23T04:29:25.512Z,17.07
2023-02-23T04:29:48.178Z,17.09
2023-02-23T04:30:11.490Z,17.08
2023-02-23T04:30:33.297Z,17.08
2023-02-23T04:30:54.971Z,17.06
2023-02-23T04:31:18.773Z,17.12
2023-02-23T04:31:41.679Z,17.04
2023-02-23T04:32:03.866Z,17.10
2023-02-23T04:32:25.731Z,17.10
2023-02-23T04:32:48.603Z,17.07
2023-02-23T04:33:10.398Z,17.10
2023-02-23T04:33:32.003Z,17.12
2023-02-23T04:33:53.637Z,17.08
2023-02-23T04:34:16.289Z,17.10
2023-02-23T04:34:39.120Z,17.10
2023-02-23T04:35:00.683Z,17.09
2023-02-23T04:35:22.701Z,17.13
2023-02-23T04:35:45.478Z,17.08
2023-02-23T04:36:07.789Z,16.95
2023-02-23T04:36:30.546Z,17.04
2023-02-23T04:36:52.109Z,17.13
2023-02-23T04:37:13.923Z,17.11
2023-02-23T04:37:35.542Z,17.10
2023-02-23T04:37:58.272Z,17.12
2023-02-23T04:38:21.056Z,17.14
2023-02-23T04:38:42.646Z,17.16
2023-02-23T04:39:06.667Z,17.18
2023-02-23T04:39:28.337Z,17.16
2023-02-23T04:39:51.250Z,17.16
2023-02-23T04:40:13.485Z,17.16
2023-02-23T04:40:35.275Z,17.14
2023-02-23T04:40:56.941Z,17.14
2023-02-23T04:41:20.146Z,17.16
2023-02-23T04:41:41.861Z,17.14
2023-02-23T04:42:03.981Z,17.14
2023-02-23T04:42:25.630Z,17.12
2023-02-23T04:42:47.207Z,17.12
2023-02-23T04:43:11.630Z,17.13
2023-02-23T04:43:33.323Z,17.06
2023-02-23T04:43:54.969Z,17.12
2023-02-23T04:44:16.875Z,17.10
2023-02-23T04:44:38.435Z,17.06
2023-02-23T04:45:01.030Z,17.06
2023-02-23T04:45:23.836Z,17.09
2023-02-23T04:45:45.971Z,17.11
2023-02-23T04:46:09.054Z,17.08
2023-02-23T04:46:30.635Z,17.09
2023-02-23T04:46:52.490Z,17.10
2023-02-23T04:47:15.581Z,17.13
2023-02-23T04:47:38.672Z,17.10
2023-02-23T04:48:00.238Z,17.11
2023-02-23T04:48:21.875Z,17.12
2023-02-23T04:48:43.454Z,17.09
2023-02-23T04:49:05.970Z,17.10
2023-02-23T04:49:27.647Z,17.05
2023-02-23T04:49:49.229Z,17.08
2023-02-23T04:50:12.036Z,17.07
2023-02-23T04:50:35.211Z,17.06
2023-02-23T04:50:56.863Z,17.08
2023-02-23T04:51:18.826Z,17.10
2023-02-23T04:51:40.784Z,17.08
2023-02-23T04:52:03.656Z,17.10
2023-02-23T04:52:25.461Z,17.08
2023-02-23T04:52:47.759Z,17.10
2023-02-23T04:53:09.377Z,17.08
2023-02-23T04:53:32.269Z,17.01
2023-02-23T04:53:54.044Z,16.94
2023-02-23T04:54:17.476Z,17.09
2023-02-23T04:54:39.686Z,16.95
2023-02-23T04:55:02.260Z,17.09
2023-02-23T04:55:25.773Z,17.10
2023-02-23T04:55:47.580Z,17.04
2023-02-23T04:56:09.306Z,17.11
2023-02-23T04:56:31.391Z,17.05
2023-02-23T04:56:54.008Z,17.09
2023-02-23T04:57:15.713Z,17.10
2023-02-23T04:57:37.277Z,17.07
2023-02-23T04:58:01.322Z,17.09
2023-02-23T04:58:23.898Z,17.07
2023-02-23T04:58:45.475Z,17.07
2023-02-23T04:59:07.134Z,17.06
2023-02-23T04:59:28.972Z,17.03
2023-02-23T04:59:51.553Z,17.04
2023-02-23T05:00:14.003Z,17.03
2023-02-23T05:00:35.635Z,17.04
2023-02-23T05:01:04.518Z,17.06
2023-02-23T05:01:28.964Z,17.03
2023-02-23T05:01:52.189Z,17.03
2023-02-23T05:02:13.832Z,17.07
2023-02-23T05:02:35.506Z,16.94
2023-02-23T05:02:58.547Z,17.06
2023-02-23T05:03:20.239Z,17.08
2023-02-23T05:03:41.885Z,17.10
2023-02-23T05:04:03.501Z,17.07
2023-02-23T05:04:26.120Z,17.08
2023-02-23T05:04:48.044Z,17.08
2023-02-23T05:05:10.055Z,17.05
2023-02-23T05:05:32.156Z,17.09
2023-02-23T05:05:54.930Z,17.10
2023-02-23T05:06:16.941Z,17.09
2023-02-23T05:06:39.021Z,17.09
2023-02-23T05:07:00.711Z,17.09
2023-02-23T05:07:22.827Z,17.05
2023-02-23T05:07:45.440Z,17.05
2023-02-23T05:08:07.002Z,17.04
2023-02-23T05:08:28.609Z,17.04
2023-02-23T05:08:50.248Z,17.03
2023-02-23T05:09:12.760Z,17.03
2023-02-23T05:09:35.667Z,17.04
2023-02-23T05:09:57.288Z,17.06
2023-02-23T05:10:19.118Z,17.07
2023-02-23T05:10:41.713Z,17.05
2023-02-23T05:11:03.461Z,17.05
2023-02-23T05:11:26.539Z,17.04
2023-02-23T05:11:48.222Z,17.03
2023-02-23T05:12:10.814Z,17.07
2023-02-23T05:12:32.752Z,16.99
2023-02-23T05:12:55.221Z,17.05
2023-02-23T05:13:16.800Z,17.04
2023-02-23T05:13:39.740Z,16.97
2023-02-23T05:14:01.374Z,16.97
2023-02-23T05:14:23.488Z,16.98
2023-02-23T05:14:45.086Z,16.97
2023-02-23T05:15:10.980Z,16.95
2023-02-23T05:15:32.640Z,16.91
2023-02-23T05:15:57.592Z,16.95
2023-02-23T05:16:19.238Z,16.94
2023-02-23T05:16:41.847Z,16.86
2023-02-23T05:17:03.454Z,16.92
2023-02-23T05:17:25.575Z,16.93
2023-02-23T05:17:47.419Z,16.87
2023-02-23T05:18:10.499Z,16.94
2023-02-23T05:18:32.111Z,16.95
2023-02-23T05:18:54.041Z,16.94
2023-02-23T05:19:15.879Z,16.90
2023-02-23T05:19:38.469Z,16.92
2023-02-23T05:20:00.114Z,16.93
2023-02-23T05:20:22.221Z,16.95
2023-02-23T05:20:44.839Z,16.95
2023-02-23T05:21:09.889Z,16.95
2023-02-23T05:21:31.818Z,16.93
2023-02-23T05:21:53.473Z,16.94
2023-02-23T05:22:15.387Z,16.95
2023-02-23T05:22:37.235Z,16.92
2023-02-23T05:22:59.878Z,16.91
2023-02-23T05:23:21.778Z,16.95
2023-02-23T05:23:43.401Z,16.97
2023-02-23T05:24:05.407Z,16.94
2023-02-23T05:24:27.991Z,16.94
2023-02-23T05:24:50.934Z,16.85
2023-02-23T05:25:12.545Z,16.94
2023-02-23T05:25:34.158Z,16.82
2023-02-23T05:26:00.910Z,16.92
2023-02-23T05:26:23.783Z,16.94
2023-02-23T05:26:45.466Z,16.87
2023-02-23T05:27:07.289Z,16.93
2023-02-23T05:27:28.896Z,16.92
2023-02-23T05:27:50.845Z,16.91
2023-02-23T05:28:13.438Z,16.85
2023-02-23T05:28:36.724Z,16.89
2023-02-23T05:28:58.329Z,16.89
2023-02-23T05:29:19.950Z,16.87
2023-02-23T05:29:42.601Z,16.87
2023-02-23T05:30:05.276Z,16.87
2023-02-23T05:30:26.932Z,16.87
2023-02-23T05:30:48.848Z,16.89
2023-02-23T05:31:12.142Z,16.88
2023-02-23T05:31:33.993Z,16.87
2023-02-23T05:31:55.719Z,16.89
2023-02-23T05:32:17.509Z,16.90
2023-02-23T05:32:40.192Z,16.91
2023-02-23T05:33:02.076Z,16.92
2023-02-23T05:33:23.656Z,16.93
2023-02-23T05:33:45.694Z,16.92
2023-02-23T05:34:08.639Z,16.92
2023-02-23T05:34:30.226Z,16.90
2023-02-23T05:34:51.830Z,16.90
2023-02-23T05:35:14.381Z,16.92
2023-02-23T05:35:39.974Z,16.95
2023-02-23T05:36:05.189Z,16.90
2023-02-23T05:36:26.955Z,16.94
2023-02-23T05:36:49.564Z,16.90
2023-02-23T05:37:11.185Z,16.94
2023-02-23T05:37:33.682Z,16.90
2023-02-23T05:37:55.830Z,16.92
2023-02-23T05:38:18.463Z,16.89
2023-02-23T05:38:40.811Z,16.79
2023-02-23T05:39:02.826Z,16.88
2023-02-23T05:39:24.539Z,16.89
2023-02-23T05:39:47.414Z,16.87
2023-02-23T05:40:11.818Z,16.83
2023-02-23T05:40:34.173Z,16.83
2023-02-23T05:40:56.014Z,16.80
2023-02-23T05:41:21.484Z,16.80
2023-02-23T05:41:43.389Z,16.62
2023-02-23T05:42:05.166Z,16.84
2023-02-23T05:42:26.968Z,16.84
2023-02-23T05:42:48.602Z,16.80
2023-02-23T05:43:11.207Z,16.83
2023-02-23T05:43:34.908Z,16.83
2023-02-23T05:43:56.545Z,16.81
2023-02-23T05:44:18.178Z,16.73
2023-02-23T05:44:40.742Z,16.81
2023-02-23T05:45:02.350Z,16.78
2023-02-23T05:45:24.085Z,16.77
2023-02-23T05:45:45.753Z,16.78
2023-02-23T05:46:09.014Z,16.76
2023-02-23T05:46:30.710Z,16.77
2023-02-23T05:46:52.834Z,16.78
2023-02-23T05:47:15.406Z,16.77
2023-02-23T05:47:38.741Z,16.77
2023-02-23T05:48:00.497Z,16.75
2023-02-23T05:48:22.623Z,16.75
2023-02-23T05:48:45.297Z,16.75
2023-02-23T05:49:07.082Z,16.68
2023-02-23T05:49:28.908Z,16.77
2023-02-23T05:49:50.727Z,16.75
2023-02-23T05:50:13.323Z,16.76
2023-02-23T05:50:35.158Z,16.74
2023-02-23T05:51:01.458Z,16.80
2023-02-23T05:51:23.075Z,16.81
2023-02-23T05:51:45.641Z,16.83
2023-02-23T05:52:07.323Z,16.76
2023-02-23T05:52:28.909Z,16.77